createdAt,value
2022-10-12T00:01:12.558Z,45.05
2022-10-12T00:03:41.210Z,45.06
2022-10-12T00:06:11.653Z,44.79
2022-10-12T00:08:40.972Z,44.73
2022-10-12T00:11:12.232Z,45.01
2022-10-12T00:13:40.794Z,45.11
2022-10-12T00:16:12.117Z,44.64
2022-10-12T00:18:40.844Z,44.73
2022-10-12T00:21:10.860Z,44.98
2022-10-12T00:23:39.603Z,44.98
2022-10-12T00:26:09.425Z,44.75
2022-10-12T00:28:38.051Z,44.79
2022-10-12T00:31:10.423Z,44.37
2022-10-12T00:33:39.154Z,44.74
2022-10-12T00:36:16.079Z,44.72
2022-10-12T00:38:44.666Z,44.65
2022-10-12T00:41:13.340Z,44.63
2022-10-12T00:43:43.144Z,44.46
2022-10-12T00:46:17.942Z,44.35
2022-10-12T00:48:47.006Z,44.29
2022-10-12T00:51:15.465Z,44.37
2022-10-12T00:53:46.895Z,44.49
2022-10-12T00:56:18.243Z,44.45
2022-10-12T00:58:47.049Z,44.26
2022-10-12T01:01:17.003Z,44.14
2022-10-12T01:03:45.650Z,44.41
2022-10-12T01:06:14.124Z,44.25
2022-10-12T01:08:42.632Z,44.12
2022-10-12T01:11:11.699Z,44.09
2022-10-12T01:13:40.385Z,44.30
2022-10-12T01:16:12.640Z,44.00
2022-10-12T01:18:46.882Z,44.24
2022-10-12T01:21:19.471Z,44.17
2022-10-12T01:24:20.009Z,43.81
2022-10-12T01:27:04.929Z,43.93
2022-10-12T01:30:16.425Z,44.15
2022-10-12T01:33:09.347Z,44.11
2022-10-12T01:35:43.657Z,44.11
2022-10-12T01:38:22.657Z,44.07
2022-10-12T01:40:55.777Z,43.96
2022-10-12T01:43:24.530Z,43.86
2022-10-12T01:45:54.613Z,43.92
2022-10-12T01:48:23.165Z,43.78
2022-10-12T01:50:53.513Z,44.09
2022-10-12T01:53:29.242Z,43.88
2022-10-12T01:56:00.658Z,43.79
2022-10-12T01:58:40.741Z,43.80
2022-10-12T02:01:17.674Z,43.82
2022-10-12T02:03:49.657Z,43.78
2022-10-12T02:06:19.751Z,43.80
2022-10-12T02:08:51.614Z,43.79
2022-10-12T02:11:22.208Z,43.82
2022-10-12T02:13:52.676Z,43.60
2022-10-12T02:16:26.858Z,43.82
2022-10-12T02:18:56.633Z,43.64
2022-10-12T02:21:27.686Z,43.62
2022-10-12T02:23:56.217Z,43.87
2022-10-12T02:26:24.753Z,43.64
2022-10-12T02:28:53.344Z,43.55
2022-10-12T02:31:29.798Z,43.87
2022-10-12T02:34:06.077Z,43.76
2022-10-12T02:36:39.013Z,43.57
2022-10-12T02:39:10.788Z,43.56
2022-10-12T02:41:42.174Z,43.87
2022-10-12T02:44:11.865Z,43.75
2022-10-12T02:46:42.018Z,43.84
2022-10-12T02:49:10.637Z,43.45
2022-10-12T02:51:39.828Z,43.49
2022-10-12T02:54:08.277Z,43.74
2022-10-12T02:56:36.807Z,43.48
2022-10-12T02:59:05.361Z,43.67
2022-10-12T03:01:33.952Z,43.54
2022-10-12T03:04:04.027Z,43.62
2022-10-12T03:06:32.560Z,43.26
2022-10-12T03:09:01.715Z,42.94
2022-10-12T03:11:30.368Z,43.19
2022-10-12T03:13:59.136Z,42.86
2022-10-12T03:16:27.890Z,42.65
2022-10-12T03:18:56.394Z,42.99
2022-10-12T03:21:26.431Z,42.60
2022-10-12T03:23:55.037Z,42.80
2022-10-12T03:26:23.553Z,42.71
2022-10-12T03:28:52.062Z,42.40
2022-10-12T03:31:20.647Z,42.59
2022-10-12T03:33:49.310Z,42.58
2022-10-12T03:36:17.817Z,42.52
2022-10-12T03:38:47.762Z,42.60
2022-10-12T03:41:16.223Z,42.14
2022-10-12T03:43:44.716Z,42.52
2022-10-12T03:46:13.913Z,42.17
2022-10-12T03:48:42.482Z,42.27
2022-10-12T03:51:11.039Z,42.14
2022-10-12T03:53:45.019Z,42.12
2022-10-12T03:56:15.324Z,42.29
2022-10-12T03:58:43.865Z,42.20
2022-10-12T04:01:12.415Z,42.28
2022-10-12T04:03:40.970Z,42.29
2022-10-12T04:06:09.480Z,41.98
2022-10-12T04:08:40.150Z,42.26
2022-10-12T04:11:08.927Z,41.87
2022-10-12T04:13:38.987Z,42.00
2022-10-12T04:16:10.284Z,41.84
2022-10-12T04:18:38.751Z,41.75
2022-10-12T04:21:10.228Z,41.58
2022-10-12T04:23:38.858Z,41.68
2022-10-12T04:26:07.482Z,42.04
2022-10-12T04:28:36.152Z,41.75
2022-10-12T04:31:06.097Z,41.65
2022-10-12T04:33:34.562Z,41.63
2022-10-12T04:36:03.131Z,41.72
2022-10-12T04:38:31.678Z,41.78
2022-10-12T04:41:00.319Z,41.63
2022-10-12T04:43:28.743Z,41.60
2022-10-12T04:45:57.668Z,41.46
2022-10-12T04:48:28.088Z,41.69
2022-10-12T04:50:56.604Z,41.23
2022-10-12T04:53:25.212Z,41.37
2022-10-12T04:55:53.719Z,42.01
2022-10-12T04:58:22.185Z,41.83
2022-10-12T05:00:50.970Z,42.10
2022-10-12T05:03:19.400Z,42.26
2022-10-12T05:05:49.662Z,41.99
2022-10-12T05:08:18.039Z,42.06
2022-10-12T05:10:47.375Z,42.63
2022-10-12T05:13:15.958Z,42.87
2022-10-12T05:15:44.596Z,43.48
2022-10-12T05:18:13.101Z,43.73
2022-10-12T05:20:41.692Z,42.99
2022-10-12T05:23:12.352Z,42.41
2022-10-12T05:25:40.940Z,43.12
2022-10-12T05:28:09.542Z,41.90
2022-10-12T05:30:38.078Z,42.90
2022-10-12T05:33:06.548Z,42.13
2022-10-12T05:35:35.220Z,42.00
2022-10-12T05:38:03.759Z,42.44
2022-10-12T05:40:33.765Z,41.79
2022-10-12T05:43:02.719Z,40.93
2022-10-12T05:45:31.309Z,41.90
2022-10-12T05:47:59.774Z,41.22
2022-10-12T05:50:28.247Z,39.45
2022-10-12T05:52:56.908Z,39.97
2022-10-12T05:55:25.414Z,39.67
2022-10-12T05:57:55.438Z,40.81
2022-10-12T06:00:24.126Z,40.06
2022-10-12T06:02:52.864Z,40.63
2022-10-12T06:05:21.420Z,42.08
2022-10-12T06:07:50.024Z,42.01
2022-10-12T06:10:18.706Z,41.88
2022-10-12T06:12:47.271Z,42.34
2022-10-12T06:15:17.405Z,41.81
2022-10-12T06:17:45.956Z,41.88
2022-10-12T06:20:14.570Z,42.00
2022-10-12T06:22:43.195Z,41.79
2022-10-12T06:25:11.907Z,41.78
2022-10-12T06:27:40.412Z,41.95
2022-10-12T06:30:09.884Z,42.13
2022-10-12T06:32:40.344Z,41.90
2022-10-12T06:35:10.400Z,42.44
2022-10-12T06:37:49.476Z,42.26
2022-10-12T06:40:19.279Z,41.71
2022-10-12T06:42:47.894Z,41.84
2022-10-12T06:45:16.594Z,41.64
2022-10-12T06:47:46.567Z,41.66
2022-10-12T06:50:15.098Z,41.80
2022-10-12T06:52:44.159Z,41.94
2022-10-12T06:55:14.990Z,41.98
2022-10-12T06:57:43.538Z,41.71
2022-10-12T07:00:13.589Z,41.56
2022-10-12T07:02:42.273Z,41.65
2022-10-12T07:05:12.344Z,41.52
2022-10-12T07:07:40.962Z,41.42
2022-10-12T07:10:10.474Z,41.71
2022-10-12T07:12:40.703Z,41.46
2022-10-12T07:15:10.624Z,41.47
2022-10-12T07:17:39.433Z,41.27
2022-10-12T07:20:08.944Z,41.60
2022-10-12T07:22:38.963Z,41.61
2022-10-12T07:25:08.799Z,41.42
2022-10-12T07:27:37.666Z,42.32
2022-10-12T07:30:07.729Z,42.19
2022-10-12T07:32:36.902Z,41.89
2022-10-12T07:35:06.496Z,41.38
2022-10-12T07:37:34.933Z,41.68
2022-10-12T07:40:05.284Z,41.56
2022-10-12T07:42:33.983Z,41.18
2022-10-12T07:45:02.611Z,41.53
2022-10-12T07:47:31.210Z,41.61
2022-10-12T07:49:59.743Z,41.41
2022-10-12T07:52:28.478Z,41.04
2022-10-12T07:54:57.083Z,41.78
2022-10-12T07:57:26.908Z,41.31
2022-10-12T07:59:55.756Z,41.35
2022-10-12T08:02:24.206Z,41.42
2022-10-12T08:04:53.409Z,41.15
2022-10-12T08:07:22.195Z,41.44
2022-10-12T08:09:50.826Z,41.37
2022-10-12T08:12:19.378Z,41.41
2022-10-12T08:14:49.458Z,41.36
2022-10-12T08:17:18.041Z,41.46
2022-10-12T08:19:46.598Z,41.48
2022-10-12T08:22:15.596Z,41.20
2022-10-12T08:24:44.219Z,41.30
2022-10-12T08:27:12.779Z,41.04
2022-10-12T08:29:41.358Z,41.35
2022-10-12T08:32:11.322Z,41.35
2022-10-12T08:34:39.778Z,41.09
2022-10-12T08:37:08.521Z,41.21
2022-10-12T08:39:40.294Z,41.26
2022-10-12T08:42:17.768Z,40.95
2022-10-12T08:45:04.899Z,41.09
2022-10-12T08:47:39.946Z,41.29
2022-10-12T08:50:12.759Z,41.28
2022-10-12T08:52:44.766Z,41.11
2022-10-12T08:55:21.862Z,41.23
2022-10-12T08:57:50.474Z,41.16
2022-10-12T09:00:20.215Z,41.36
2022-10-12T09:03:02.155Z,41.11
2022-10-12T09:05:34.704Z,41.30
2022-10-12T09:08:05.675Z,41.41
2022-10-12T09:10:44.209Z,41.20
2022-10-12T09:13:22.295Z,41.33
2022-10-12T09:15:53.759Z,41.53
2022-10-12T09:18:28.866Z,41.38
2022-10-12T09:20:57.373Z,41.53
2022-10-12T09:23:27.351Z,41.44
2022-10-12T09:26:02.605Z,41.38
2022-10-12T09:28:37.736Z,41.23
2022-10-12T09:31:19.165Z,41.39
2022-10-12T09:33:52.406Z,41.70
2022-10-12T09:36:23.687Z,41.52
2022-10-12T09:38:52.223Z,41.53
2022-10-12T09:41:23.213Z,41.59
2022-10-12T09:43:52.671Z,41.62
2022-10-12T09:46:24.217Z,41.27
2022-10-12T09:49:00.912Z,41.89
2022-10-12T09:51:30.004Z,41.81
2022-10-12T09:54:03.400Z,42.11
2022-10-12T09:56:39.835Z,42.15
2022-10-12T09:59:24.767Z,41.96
2022-10-12T10:02:05.878Z,41.78
2022-10-12T10:04:35.832Z,41.79
2022-10-12T10:07:28.203Z,41.90
2022-10-12T10:10:18.311Z,41.84
2022-10-12T10:12:51.898Z,41.79
2022-10-12T10:15:23.799Z,42.28
2022-10-12T10:17:54.355Z,42.01
2022-10-12T10:20:29.612Z,42.21
2022-10-12T10:22:58.239Z,42.22
2022-10-12T10:25:27.042Z,42.14
2022-10-12T10:28:22.657Z,42.76
2022-10-12T10:31:01.020Z,42.29
2022-10-12T10:33:29.663Z,42.59
2022-10-12T10:36:06.311Z,42.46
2022-10-12T10:38:48.964Z,42.13
2022-10-12T10:41:18.395Z,42.36
2022-10-12T10:43:47.700Z,42.39
2022-10-12T10:46:16.656Z,42.20
2022-10-12T10:48:53.275Z,41.89
2022-10-12T10:51:23.289Z,42.17
2022-10-12T10:53:52.088Z,42.46
2022-10-12T10:56:23.082Z,42.38
2022-10-12T10:58:52.987Z,42.08
2022-10-12T11:01:25.419Z,42.26
2022-10-12T11:03:57.774Z,42.33
2022-10-12T11:06:37.194Z,41.77
2022-10-12T11:09:08.131Z,42.24
2022-10-12T11:11:37.806Z,42.43
2022-10-12T11:14:13.460Z,42.01
2022-10-12T11:16:46.762Z,42.21
2022-10-12T11:19:31.100Z,42.24
2022-10-12T11:22:03.534Z,42.44
2022-10-12T11:24:36.252Z,42.36
2022-10-12T11:27:06.948Z,42.15
2022-10-12T11:29:35.539Z,42.09
2022-10-12T11:32:05.514Z,42.08
2022-10-12T11:34:40.330Z,41.96
2022-10-12T11:37:20.616Z,41.91
2022-10-12T11:39:51.191Z,42.26
2022-10-12T11:42:28.892Z,41.79
2022-10-12T11:44:57.483Z,41.96
2022-10-12T11:47:33.084Z,42.06
2022-10-12T11:50:03.060Z,42.08
2022-10-12T11:52:38.163Z,41.71
2022-10-12T11:55:37.490Z,41.74
2022-10-12T11:58:13.475Z,42.36
2022-10-12T12:00:54.088Z,41.91
2022-10-12T12:03:26.775Z,41.78
2022-10-12T12:05:55.640Z,42.24
2022-10-12T12:08:59.858Z,41.90
2022-10-12T12:11:29.984Z,41.96
2022-10-12T12:14:50.379Z,41.66
2022-10-12T12:17:29.338Z,42.23
2022-10-12T12:20:00.957Z,42.27
2022-10-12T12:22:35.350Z,42.15
2022-10-12T12:25:18.846Z,41.75
2022-10-12T12:27:50.272Z,42.02
2022-10-12T12:30:38.042Z,42.04
2022-10-12T12:33:25.907Z,42.07
2022-10-12T12:35:56.782Z,42.19
2022-10-12T12:38:31.240Z,42.06
2022-10-12T12:41:07.850Z,42.35
2022-10-12T12:44:01.540Z,41.84
2022-10-12T12:47:43.854Z,41.99
2022-10-12T12:50:29.755Z,41.96
2022-10-12T12:53:04.216Z,42.16
2022-10-12T12:55:57.320Z,42.22
2022-10-12T12:59:02.467Z,42.22
2022-10-12T13:01:50.127Z,42.79
2022-10-12T13:04:36.023Z,42.42
2022-10-12T13:07:48.897Z,42.32
2022-10-12T13:10:29.465Z,42.59
2022-10-12T13:13:38.763Z,42.34
2022-10-12T13:19:22.446Z,42.55
2022-10-12T13:21:52.680Z,42.34
2022-10-12T13:24:24.392Z,42.12
2022-10-12T13:26:54.700Z,42.31
2022-10-12T13:29:30.739Z,42.03
2022-10-12T13:32:00.982Z,42.35
2022-10-12T13:34:33.090Z,42.02
2022-10-12T13:37:03.151Z,42.20
2022-10-12T13:39:36.398Z,42.40
2022-10-12T13:42:06.996Z,42.10
2022-10-12T13:44:37.586Z,42.53
2022-10-12T13:47:24.884Z,42.36
2022-10-12T13:49:53.567Z,42.68
2022-10-12T13:52:29.610Z,42.38
2022-10-12T13:55:00.820Z,42.32
2022-10-12T13:57:31.930Z,41.71
2022-10-12T14:00:05.342Z,42.47
2022-10-12T14:02:33.902Z,41.96
2022-10-12T14:05:06.527Z,42.07
2022-10-12T14:07:36.673Z,42.28
2022-10-12T14:10:07.879Z,42.28
2022-10-12T14:12:36.582Z,42.34
2022-10-12T14:15:07.816Z,42.67
2022-10-12T14:17:44.666Z,42.72
2022-10-12T14:20:18.795Z,42.48
2022-10-12T14:22:48.661Z,42.59
2022-10-12T14:25:19.584Z,42.63
2022-10-12T14:27:48.139Z,42.70
2022-10-12T14:30:21.377Z,42.48
2022-10-12T14:32:50.306Z,42.44
2022-10-12T14:35:27.432Z,42.43
2022-10-12T14:37:56.450Z,42.25
2022-10-12T14:40:30.393Z,42.19
2022-10-12T14:43:04.957Z,42.51
2022-10-12T14:45:35.257Z,42.14
2022-10-12T14:48:05.057Z,42.59
2022-10-12T14:50:34.025Z,42.12
2022-10-12T14:53:04.482Z,42.37
2022-10-12T14:55:34.135Z,42.14
2022-10-12T14:58:03.761Z,42.05
2022-10-12T15:00:35.386Z,42.25
2022-10-12T15:03:04.347Z,42.19
2022-10-12T15:05:33.752Z,42.12
2022-10-12T15:08:07.318Z,42.37
2022-10-12T15:10:36.006Z,42.25
2022-10-12T15:13:04.569Z,42.41
2022-10-12T15:15:38.254Z,42.81
2022-10-12T15:18:07.479Z,42.51
2022-10-12T15:20:36.604Z,42.47
2022-10-12T15:23:05.259Z,42.71
2022-10-12T15:25:43.964Z,42.74
2022-10-12T15:28:13.125Z,42.04
2022-10-12T15:31:11.843Z,42.37
2022-10-12T15:33:32.103Z,42.24
2022-10-12T15:36:00.610Z,42.63
2022-10-12T15:38:29.207Z,42.98
2022-10-12T15:40:58.361Z,42.95
2022-10-12T15:43:27.175Z,42.67
2022-10-12T15:45:57.570Z,43.00
2022-10-12T15:48:27.862Z,43.18
2022-10-12T15:50:56.379Z,42.56
2022-10-12T15:53:26.277Z,42.77
2022-10-12T15:55:55.268Z,43.05
2022-10-12T15:58:23.949Z,43.06
2022-10-12T16:00:52.598Z,43.05
2022-10-12T16:03:25.928Z,43.20
2022-10-12T16:05:55.159Z,43.28
2022-10-12T16:08:23.738Z,43.35
2022-10-12T16:10:52.598Z,43.25
2022-10-12T16:13:21.458Z,43.73
2022-10-12T16:15:50.131Z,44.05
2022-10-12T16:18:18.869Z,40.52
2022-10-12T16:20:53.539Z,38.22
2022-10-12T16:23:23.836Z,36.54
2022-10-12T16:25:52.492Z,37.38
2022-10-12T16:28:21.014Z,34.79
2022-10-12T16:30:50.114Z,36.94
2022-10-12T16:33:19.002Z,40.25
2022-10-12T16:35:48.903Z,40.20
2022-10-12T16:38:19.916Z,41.04
2022-10-12T16:40:49.926Z,41.65
2022-10-12T16:43:19.513Z,41.00
2022-10-12T16:45:56.948Z,42.68
2022-10-12T16:48:25.511Z,41.12
2022-10-12T16:50:55.367Z,41.87
2022-10-12T16:53:23.860Z,42.04
2022-10-12T16:55:52.572Z,42.24
2022-10-12T16:58:21.051Z,42.03
2022-10-12T17:00:49.594Z,42.37
2022-10-12T17:03:18.168Z,42.08
2022-10-12T17:05:47.944Z,43.02
2022-10-12T17:08:17.797Z,43.14
2022-10-12T17:10:46.415Z,43.07
2022-10-12T17:13:15.133Z,43.00
2022-10-12T17:15:43.758Z,43.27
2022-10-12T17:18:12.461Z,43.47
2022-10-12T17:20:41.024Z,43.08
2022-10-12T17:23:09.492Z,43.88
2022-10-12T17:25:39.437Z,44.08
2022-10-12T17:28:08.143Z,43.14
2022-10-12T17:30:38.387Z,44.39
2022-10-12T17:33:06.937Z,43.47
2022-10-12T17:35:40.100Z,43.93
2022-10-12T17:38:08.680Z,43.71
2022-10-12T17:40:39.771Z,42.88
2022-10-12T17:43:08.374Z,43.37
2022-10-12T17:45:39.970Z,42.87
2022-10-12T17:48:09.134Z,42.85
2022-10-12T17:50:37.755Z,42.68
2022-10-12T17:53:06.380Z,42.87
2022-10-12T17:55:48.472Z,42.89
2022-10-12T17:58:17.636Z,42.46
2022-10-12T18:00:46.274Z,43.26
2022-10-12T18:03:14.947Z,42.75
2022-10-12T18:05:43.455Z,42.96
2022-10-12T18:08:12.157Z,42.67
2022-10-12T18:10:42.667Z,42.41
2022-10-12T18:13:11.340Z,42.35
2022-10-12T18:15:44.387Z,41.95
2022-10-12T18:18:15.338Z,42.40
2022-10-12T18:20:44.111Z,42.15
2022-10-12T18:23:12.755Z,42.81
2022-10-12T18:25:43.024Z,42.43
2022-10-12T18:28:12.519Z,42.27
2022-10-12T18:30:47.123Z,42.38
2022-10-12T18:33:16.217Z,42.54
2022-10-12T18:35:44.845Z,42.31
2022-10-12T18:38:13.726Z,42.41
2022-10-12T18:40:43.715Z,42.89
2022-10-12T18:43:12.489Z,42.76
2022-10-12T18:45:43.475Z,42.83
2022-10-12T18:48:12.709Z,42.76
2022-10-12T18:50:41.358Z,42.67
2022-10-12T18:53:10.022Z,42.42
2022-10-12T18:55:38.931Z,42.56
2022-10-12T18:58:08.939Z,42.57
2022-10-12T19:00:38.119Z,42.66
2022-10-12T19:03:07.018Z,42.43
2022-10-12T19:05:35.606Z,44.03
2022-10-12T19:08:04.275Z,42.44
2022-10-12T19:10:32.859Z,43.04
2022-10-12T19:13:01.699Z,42.67
2022-10-12T19:15:31.658Z,42.89
2022-10-12T19:18:00.475Z,42.67
2022-10-12T19:20:32.444Z,42.52
2022-10-12T19:23:00.959Z,42.93
2022-10-12T19:25:30.543Z,42.52
2022-10-12T19:27:59.907Z,43.15
2022-10-12T19:30:29.252Z,43.64
2022-10-12T19:32:59.138Z,43.11
2022-10-12T19:35:28.720Z,43.72
2022-10-12T19:37:57.324Z,43.82
2022-10-12T19:40:25.910Z,43.00
2022-10-12T19:42:54.427Z,43.11
2022-10-12T19:45:23.381Z,42.86
2022-10-12T19:47:52.190Z,43.12
2022-10-12T19:50:22.177Z,43.25
2022-10-12T19:52:50.675Z,42.97
2022-10-12T19:55:19.523Z,42.67
2022-10-12T19:57:50.605Z,43.13
2022-10-12T20:00:21.813Z,43.02
2022-10-12T20:02:50.955Z,42.96
2022-10-12T20:05:21.745Z,42.96
2022-10-12T20:07:52.316Z,42.82
2022-10-12T20:10:21.648Z,42.58
2022-10-12T20:12:50.197Z,42.85
2022-10-12T20:15:18.948Z,42.48
2022-10-12T20:17:47.387Z,42.36
2022-10-12T20:20:16.963Z,42.68
2022-10-12T20:22:47.039Z,42.73
2022-10-12T20:25:15.823Z,43.10
2022-10-12T20:27:44.424Z,42.68
2022-10-12T20:30:13.966Z,42.91
2022-10-12T20:32:42.467Z,42.50
2022-10-12T20:35:11.006Z,43.66
2022-10-12T20:37:39.585Z,42.79
2022-10-12T20:40:11.457Z,43.10
2022-10-12T20:42:40.027Z,43.04
2022-10-12T20:45:10.633Z,43.00
2022-10-12T20:47:39.250Z,42.79
2022-10-12T20:50:08.520Z,43.20
2022-10-12T20:52:37.204Z,43.08
2022-10-12T20:55:10.359Z,42.99
2022-10-12T20:57:38.852Z,42.50
2022-10-12T21:00:08.970Z,42.67
2022-10-12T21:02:38.568Z,43.06
2022-10-12T21:05:08.143Z,42.67
2022-10-12T21:07:36.757Z,43.04
2022-10-12T21:10:06.808Z,43.27
2022-10-12T21:12:38.848Z,42.87
2022-10-12T21:15:08.711Z,43.03
2022-10-12T21:17:37.228Z,43.06
2022-10-12T21:20:06.817Z,42.76
2022-10-12T21:22:35.442Z,43.24
2022-10-12T21:25:03.989Z,42.93
2022-10-12T21:27:32.508Z,42.95
2022-10-12T21:30:02.425Z,42.84
2022-10-12T21:32:31.884Z,42.81
2022-10-12T21:35:00.489Z,42.53
2022-10-12T21:37:29.917Z,42.81
2022-10-12T21:39:58.496Z,42.93
2022-10-12T21:42:27.065Z,42.69
2022-10-12T21:44:55.672Z,42.97
2022-10-12T21:47:25.616Z,42.50
2022-10-12T21:49:54.344Z,42.75
2022-10-12T21:52:22.909Z,42.62
2022-10-12T21:54:51.556Z,42.96
2022-10-12T21:57:20.099Z,42.80
2022-10-12T21:59:49.600Z,42.89
2022-10-12T22:02:18.452Z,42.75
2022-10-12T22:04:48.498Z,42.42
2022-10-12T22:07:17.308Z,42.46
2022-10-12T22:09:45.979Z,42.59
2022-10-12T22:12:14.649Z,42.65
2022-10-12T22:14:43.390Z,42.39
2022-10-12T22:17:11.975Z,42.54
2022-10-12T22:19:41.082Z,42.61
2022-10-12T22:22:11.087Z,42.35
2022-10-12T22:24:39.948Z,42.35
2022-10-12T22:27:08.500Z,42.06
2022-10-12T22:29:37.210Z,42.27
2022-10-12T22:32:06.218Z,42.43
2022-10-12T22:34:34.923Z,42.26
2022-10-12T22:37:03.428Z,42.65
2022-10-12T22:39:33.524Z,42.33
2022-10-12T22:42:03.857Z,42.32
2022-10-12T22:44:33.574Z,42.28
2022-10-12T22:47:02.070Z,42.30
2022-10-12T22:49:30.700Z,42.34
2022-10-12T22:51:59.161Z,42.19
2022-10-12T22:54:27.703Z,42.00
2022-10-12T22:56:57.494Z,42.00
2022-10-12T22:59:26.366Z,42.01
2022-10-12T23:01:54.937Z,42.17
2022-10-12T23:04:23.655Z,42.15
2022-10-12T23:06:52.229Z,42.16
2022-10-12T23:09:20.855Z,42.06
2022-10-12T23:11:50.851Z,42.15
2022-10-12T23:14:20.965Z,42.09
2022-10-12T23:16:49.449Z,42.20
2022-10-12T23:19:18.007Z,41.97
2022-10-12T23:21:48.347Z,41.95
2022-10-12T23:24:16.948Z,41.92
2022-10-12T23:26:45.558Z,41.93
2022-10-12T23:29:14.134Z,41.83
2022-10-12T23:31:44.098Z,41.77
2022-10-12T23:34:12.645Z,41.53
2022-10-12T23:36:41.162Z,41.72
2022-10-12T23:39:09.709Z,41.80
2022-10-12T23:41:38.409Z,41.93
2022-10-12T23:44:06.846Z,41.89
2022-10-12T23:46:35.585Z,41.79
2022-10-12T23:49:05.455Z,41.63
2022-10-12T23:51:34.085Z,41.52
2022-10-12T23:54:02.616Z,41.49
2022-10-12T23:56:31.270Z,41.39
2022-10-12T23:59:00.654Z,41.54
